ETNW

Wunstorf Airport

Germany
METAR ETNW 200820Z 22007KT 9999 SCT019 OVC042 21/16 Q1021 BLU BLU
Observed Flight Rules
Jun-20 @ 08:20 UTC (53 minutes ago) Visual Flight Rules
Wind Visibility Clouds
220° at 7 knots 10,000+ meters
  • Scattered at 1,900' AGL
  • Overcast at 4,200' AGL
Temperatures Readings
Current 21°C / 70°F
Dewpoint 16°C / 61°F
Humidity 73%
Altimeter 30.15" Hg
Pressure 1021 hPa
Elevation 70
METAR ETNW 200820Z 22007KT 9999 SCT019 OVC042 21/16 Q1021 BLU BLU
Observed Flight Rules
Jun-20 @ 08:20 UTC
(53 minutes ago)
VFR
Wind Visibility
220° at 7 knots 10,000+ meters
Clouds
  • Scattered at 1,900' AGL
  • Overcast at 4,200' AGL
Temperature Dewpoint
21°C / 70°F 16°C / 61°F
Humidity Altimeter Pressure
73% 30.15" Hg 1021 hPa